sensor_id;sensor_type;location;lat;lon;timestamp;temperature;humidity
75190;HTU21D;69198;44.694;37.790;2024-02-16T00:00:54;6.97;76.80
75190;HTU21D;69198;44.694;37.790;2024-02-16T00:01:55;6.98;77.02
75190;HTU21D;69198;44.694;37.790;2024-02-16T00:02:56;7.01;76.89
75190;HTU21D;69198;44.694;37.790;2024-02-16T00:03:57;7.00;76.91
75190;HTU21D;69198;44.694;37.790;2024-02-16T00:04:58;7.02;77.06
75190;HTU21D;69198;44.694;37.790;2024-02-16T00:05:59;7.01;76.92
75190;HTU21D;69198;44.694;37.790;2024-02-16T00:07:00;7.03;76.75
75190;HTU21D;69198;44.694;37.790;2024-02-16T00:08:01;7.00;76.79
75190;HTU21D;69198;44.694;37.790;2024-02-16T00:09:03;7.00;76.94
75190;HTU21D;69198;44.694;37.790;2024-02-16T00:10:08;7.02;77.05
75190;HTU21D;69198;44.694;37.790;2024-02-16T00:11:12;7.02;77.08
75190;HTU21D;69198;44.694;37.790;2024-02-16T00:12:14;7.02;77.04
75190;HTU21D;69198;44.694;37.790;2024-02-16T00:13:15;6.99;76.93
75190;HTU21D;69198;44.694;37.790;2024-02-16T00:14:16;7.00;76.58
75190;HTU21D;69198;44.694;37.790;2024-02-16T00:15:17;7.01;76.62
75190;HTU21D;69198;44.694;37.790;2024-02-16T00:16:18;6.98;76.73
75190;HTU21D;69198;44.694;37.790;2024-02-16T00:17:19;7.00;76.50
75190;HTU21D;69198;44.694;37.790;2024-02-16T00:18:21;6.98;76.34
75190;HTU21D;69198;44.694;37.790;2024-02-16T00:19:23;6.99;76.21
75190;HTU21D;69198;44.694;37.790;2024-02-16T00:20:24;6.99;76.04
75190;HTU21D;69198;44.694;37.790;2024-02-16T00:21:25;6.94;76.21
75190;HTU21D;69198;44.694;37.790;2024-02-16T00:22:26;6.90;76.37
75190;HTU21D;69198;44.694;37.790;2024-02-16T00:23:27;6.91;76.31
75190;HTU21D;69198;44.694;37.790;2024-02-16T00:24:28;6.90;76.24
75190;HTU21D;69198;44.694;37.790;2024-02-16T00:25:32;6.90;76.28
75190;HTU21D;69198;44.694;37.790;2024-02-16T00:26:33;6.86;76.47
75190;HTU21D;69198;44.694;37.790;2024-02-16T00:27:34;6.87;76.15
75190;HTU21D;69198;44.694;37.790;2024-02-16T00:28:35;6.87;76.15
75190;HTU21D;69198;44.694;37.790;2024-02-16T00:29:36;6.84;76.41
75190;HTU21D;69198;44.694;37.790;2024-02-16T00:30:38;6.82;76.63
75190;HTU21D;69198;44.694;37.790;2024-02-16T00:31:39;6.83;76.86
75190;HTU21D;69198;44.694;37.790;2024-02-16T00:32:41;6.86;76.94
75190;HTU21D;69198;44.694;37.790;2024-02-16T00:33:42;6.88;77.08
75190;HTU21D;69198;44.694;37.790;2024-02-16T00:34:43;6.88;77.19
75190;HTU21D;69198;44.694;37.790;2024-02-16T00:35:44;6.85;77.17
75190;HTU21D;69198;44.694;37.790;2024-02-16T00:36:48;6.85;76.92
75190;HTU21D;69198;44.694;37.790;2024-02-16T00:37:49;6.85;77.23
75190;HTU21D;69198;44.694;37.790;2024-02-16T00:38:50;6.86;77.02
75190;HTU21D;69198;44.694;37.790;2024-02-16T00:39:51;6.85;77.11
75190;HTU21D;69198;44.694;37.790;2024-02-16T00:40:55;6.84;77.51
75190;HTU21D;69198;44.694;37.790;2024-02-16T00:41:56;6.82;77.63
75190;HTU21D;69198;44.694;37.790;2024-02-16T00:42:57;6.83;77.65
75190;HTU21D;69198;44.694;37.790;2024-02-16T00:43:59;6.81;77.78
75190;HTU21D;69198;44.694;37.790;2024-02-16T00:45:00;6.82;77.61
75190;HTU21D;69198;44.694;37.790;2024-02-16T00:46:01;6.81;77.77
75190;HTU21D;69198;44.694;37.790;2024-02-16T00:47:03;6.83;77.76
75190;HTU21D;69198;44.694;37.790;2024-02-16T00:48:06;6.81;77.81
75190;HTU21D;69198;44.694;37.790;2024-02-16T00:49:08;6.83;77.38
75190;HTU21D;69198;44.694;37.790;2024-02-16T00:50:11;6.81;77.67
75190;HTU21D;69198;44.694;37.790;2024-02-16T00:51:12;6.81;77.89
75190;HTU21D;69198;44.694;37.790;2024-02-16T00:52:13;6.80;77.69
75190;HTU21D;69198;44.694;37.790;2024-02-16T00:53:14;6.76;77.58
75190;HTU21D;69198;44.694;37.790;2024-02-16T00:54:15;6.78;77.89
75190;HTU21D;69198;44.694;37.790;2024-02-16T00:55:16;6.75;77.98
75190;HTU21D;69198;44.694;37.790;2024-02-16T00:56:17;6.76;77.88
75190;HTU21D;69198;44.694;37.790;2024-02-16T00:57:18;6.76;77.72
75190;HTU21D;69198;44.694;37.790;2024-02-16T00:58:19;6.79;77.85
75190;HTU21D;69198;44.694;37.790;2024-02-16T00:59:20;6.75;77.83
75190;HTU21D;69198;44.694;37.790;2024-02-16T01:00:21;6.76;77.81
75190;HTU21D;69198;44.694;37.790;2024-02-16T01:01:24;6.75;77.76
75190;HTU21D;69198;44.694;37.790;2024-02-16T01:02:26;6.76;77.79
75190;HTU21D;69198;44.694;37.790;2024-02-16T01:03:28;6.76;77.70
75190;HTU21D;69198;44.694;37.790;2024-02-16T01:04:29;6.74;77.79
75190;HTU21D;69198;44.694;37.790;2024-02-16T01:05:30;6.78;78.06
75190;HTU21D;69198;44.694;37.790;2024-02-16T01:06:31;6.79;78.27
75190;HTU21D;69198;44.694;37.790;2024-02-16T01:07:32;6.76;78.40
75190;HTU21D;69198;44.694;37.790;2024-02-16T01:08:33;6.80;78.48
75190;HTU21D;69198;44.694;37.790;2024-02-16T01:09:34;6.81;78.34
75190;HTU21D;69198;44.694;37.790;2024-02-16T01:10:35;6.82;78.19
75190;HTU21D;69198;44.694;37.790;2024-02-16T01:11:36;6.80;77.89
75190;HTU21D;69198;44.694;37.790;2024-02-16T01:12:37;6.76;77.63
75190;HTU21D;69198;44.694;37.790;2024-02-16T01:13:39;6.76;77.49
75190;HTU21D;69198;44.694;37.790;2024-02-16T01:14:40;6.78;77.57
75190;HTU21D;69198;44.694;37.790;2024-02-16T01:15:41;6.79;77.55
75190;HTU21D;69198;44.694;37.790;2024-02-16T01:16:42;6.81;77.94
75190;HTU21D;69198;44.694;37.790;2024-02-16T01:17:43;6.83;78.00
75190;HTU21D;69198;44.694;37.790;2024-02-16T01:18:45;6.83;77.90
75190;HTU21D;69198;44.694;37.790;2024-02-16T01:19:45;6.84;77.80
75190;HTU21D;69198;44.694;37.790;2024-02-16T01:20:47;6.84;77.72
75190;HTU21D;69198;44.694;37.790;2024-02-16T01:21:48;6.83;77.82
75190;HTU21D;69198;44.694;37.790;2024-02-16T01:22:53;6.82;77.82
75190;HTU21D;69198;44.694;37.790;2024-02-16T01:23:54;6.84;77.81
75190;HTU21D;69198;44.694;37.790;2024-02-16T01:24:55;6.85;77.89
75190;HTU21D;69198;44.694;37.790;2024-02-16T01:25:56;6.81;77.97
75190;HTU21D;69198;44.694;37.790;2024-02-16T01:26:57;6.81;77.96
75190;HTU21D;69198;44.694;37.790;2024-02-16T01:27:59;6.81;77.89
75190;HTU21D;69198;44.694;37.790;2024-02-16T01:29:00;6.82;78.05
75190;HTU21D;69198;44.694;37.790;2024-02-16T01:30:03;6.84;77.53
75190;HTU21D;69198;44.694;37.790;2024-02-16T01:31:04;6.82;77.15
75190;HTU21D;69198;44.694;37.790;2024-02-16T01:32:05;6.82;76.86
75190;HTU21D;69198;44.694;37.790;2024-02-16T01:33:06;6.81;76.75
75190;HTU21D;69198;44.694;37.790;2024-02-16T01:34:07;6.80;76.99
75190;HTU21D;69198;44.694;37.790;2024-02-16T01:35:08;6.80;77.10
75190;HTU21D;69198;44.694;37.790;2024-02-16T01:36:10;6.81;77.07
75190;HTU21D;69198;44.694;37.790;2024-02-16T01:37:11;6.82;77.18
75190;HTU21D;69198;44.694;37.790;2024-02-16T01:38:12;6.85;77.44
75190;HTU21D;69198;44.694;37.790;2024-02-16T01:39:13;6.82;77.32
75190;HTU21D;69198;44.694;37.790;2024-02-16T01:40:14;6.86;77.42
75190;HTU21D;69198;44.694;37.790;2024-02-16T01:41:17;6.87;77.40
75190;HTU21D;69198;44.694;37.790;2024-02-16T01:42:19;6.87;77.52
75190;HTU21D;69198;44.694;37.790;2024-02-16T01:43:20;6.89;77.40
75190;HTU21D;69198;44.694;37.790;2024-02-16T01:44:22;6.89;76.91
75190;HTU21D;69198;44.694;37.790;2024-02-16T01:45:23;6.85;77.11
75190;HTU21D;69198;44.694;37.790;2024-02-16T01:46:24;6.89;77.37
75190;HTU21D;69198;44.694;37.790;2024-02-16T01:47:27;6.86;77.31
75190;HTU21D;69198;44.694;37.790;2024-02-16T01:48:28;6.85;77.37
75190;HTU21D;69198;44.694;37.790;2024-02-16T01:49:30;6.83;77.31
75190;HTU21D;69198;44.694;37.790;2024-02-16T01:50:31;6.84;77.29
75190;HTU21D;69198;44.694;37.790;2024-02-16T01:51:35;6.86;77.37
75190;HTU21D;69198;44.694;37.790;2024-02-16T01:52:36;6.88;77.34
75190;HTU21D;69198;44.694;37.790;2024-02-16T01:53:38;6.88;77.37
75190;HTU21D;69198;44.694;37.790;2024-02-16T01:54:40;6.87;77.39
75190;HTU21D;69198;44.694;37.790;2024-02-16T01:55:41;6.88;77.32
75190;HTU21D;69198;44.694;37.790;2024-02-16T01:56:42;6.90;77.40
75190;HTU21D;69198;44.694;37.790;2024-02-16T01:57:45;6.89;77.31
75190;HTU21D;69198;44.694;37.790;2024-02-16T01:58:47;6.90;76.83
75190;HTU21D;69198;44.694;37.790;2024-02-16T01:59:50;6.89;77.07
75190;HTU21D;69198;44.694;37.790;2024-02-16T02:00:51;6.89;77.15
75190;HTU21D;69198;44.694;37.790;2024-02-16T02:01:53;6.88;77.02
75190;HTU21D;69198;44.694;37.790;2024-02-16T02:02:54;6.88;76.91
75190;HTU21D;69198;44.694;37.790;2024-02-16T02:03:55;6.88;77.15
75190;HTU21D;69198;44.694;37.790;2024-02-16T02:04:57;6.90;77.30
75190;HTU21D;69198;44.694;37.790;2024-02-16T02:05:58;6.91;77.04
75190;HTU21D;69198;44.694;37.790;2024-02-16T02:06:59;6.93;77.07
75190;HTU21D;69198;44.694;37.790;2024-02-16T02:08:09;6.93;77.04
75190;HTU21D;69198;44.694;37.790;2024-02-16T02:09:10;6.90;77.05
75190;HTU21D;69198;44.694;37.790;2024-02-16T02:10:11;6.90;76.93
75190;HTU21D;69198;44.694;37.790;2024-02-16T02:11:13;6.91;77.11
75190;HTU21D;69198;44.694;37.790;2024-02-16T02:12:14;6.96;77.10
75190;HTU21D;69198;44.694;37.790;2024-02-16T02:13:16;6.95;77.08
75190;HTU21D;69198;44.694;37.790;2024-02-16T02:14:17;6.97;77.15
75190;HTU21D;69198;44.694;37.790;2024-02-16T02:15:18;6.97;76.55
75190;HTU21D;69198;44.694;37.790;2024-02-16T02:16:21;6.95;76.56
75190;HTU21D;69198;44.694;37.790;2024-02-16T02:17:22;6.97;76.64
75190;HTU21D;69198;44.694;37.790;2024-02-16T02:18:24;6.99;76.39
75190;HTU21D;69198;44.694;37.790;2024-02-16T02:19:26;6.99;76.49
75190;HTU21D;69198;44.694;37.790;2024-02-16T02:20:27;7.00;76.84
75190;HTU21D;69198;44.694;37.790;2024-02-16T02:21:28;6.99;76.53
75190;HTU21D;69198;44.694;37.790;2024-02-16T02:22:29;6.97;76.21
75190;HTU21D;69198;44.694;37.790;2024-02-16T02:23:30;6.95;76.28
75190;HTU21D;69198;44.694;37.790;2024-02-16T02:24:31;6.96;76.46
75190;HTU21D;69198;44.694;37.790;2024-02-16T02:25:32;6.96;76.39
75190;HTU21D;69198;44.694;37.790;2024-02-16T02:26:33;6.94;76.34
75190;HTU21D;69198;44.694;37.790;2024-02-16T02:27:34;6.95;76.41
75190;HTU21D;69198;44.694;37.790;2024-02-16T02:28:35;6.97;76.41
75190;HTU21D;69198;44.694;37.790;2024-02-16T02:29:36;6.96;76.27
75190;HTU21D;69198;44.694;37.790;2024-02-16T02:30:37;6.98;76.26
75190;HTU21D;69198;44.694;37.790;2024-02-16T02:31:38;6.98;76.29
75190;HTU21D;69198;44.694;37.790;2024-02-16T02:32:39;7.00;76.18
75190;HTU21D;69198;44.694;37.790;2024-02-16T02:33:43;6.99;76.04
75190;HTU21D;69198;44.694;37.790;2024-02-16T02:34:44;6.96;76.27
75190;HTU21D;69198;44.694;37.790;2024-02-16T02:35:45;6.96;76.46
75190;HTU21D;69198;44.694;37.790;2024-02-16T02:36:47;6.98;76.39
75190;HTU21D;69198;44.694;37.790;2024-02-16T02:37:49;6.97;76.05
75190;HTU21D;69198;44.694;37.790;2024-02-16T02:38:50;6.94;76.08
75190;HTU21D;69198;44.694;37.790;2024-02-16T02:39:51;6.97;76.14
75190;HTU21D;69198;44.694;37.790;2024-02-16T02:40:52;6.98;76.01
75190;HTU21D;69198;44.694;37.790;2024-02-16T02:41:53;6.97;75.65
75190;HTU21D;69198;44.694;37.790;2024-02-16T02:42:54;6.95;75.93
75190;HTU21D;69198;44.694;37.790;2024-02-16T02:43:55;6.97;76.15
75190;HTU21D;69198;44.694;37.790;2024-02-16T02:44:56;6.97;76.26
75190;HTU21D;69198;44.694;37.790;2024-02-16T02:45:57;6.97;76.18
75190;HTU21D;69198;44.694;37.790;2024-02-16T02:46:58;6.98;76.02
75190;HTU21D;69198;44.694;37.790;2024-02-16T02:48:00;6.97;75.80
75190;HTU21D;69198;44.694;37.790;2024-02-16T02:49:01;6.97;75.84
75190;HTU21D;69198;44.694;37.790;2024-02-16T02:50:03;6.97;75.87
75190;HTU21D;69198;44.694;37.790;2024-02-16T02:51:05;6.97;75.76
75190;HTU21D;69198;44.694;37.790;2024-02-16T02:52:06;6.95;75.63
75190;HTU21D;69198;44.694;37.790;2024-02-16T02:53:07;6.94;75.53
75190;HTU21D;69198;44.694;37.790;2024-02-16T02:54:08;6.93;75.56
75190;HTU21D;69198;44.694;37.790;2024-02-16T02:55:09;6.97;75.49
75190;HTU21D;69198;44.694;37.790;2024-02-16T02:56:11;6.99;75.28
75190;HTU21D;69198;44.694;37.790;2024-02-16T02:57:12;6.96;75.38
75190;HTU21D;69198;44.694;37.790;2024-02-16T02:58:13;6.99;75.19
75190;HTU21D;69198;44.694;37.790;2024-02-16T02:59:14;6.95;75.28
75190;HTU21D;69198;44.694;37.790;2024-02-16T03:00:15;6.95;75.38
75190;HTU21D;69198;44.694;37.790;2024-02-16T03:01:16;6.97;75.55
75190;HTU21D;69198;44.694;37.790;2024-02-16T03:02:20;6.96;75.65
75190;HTU21D;69198;44.694;37.790;2024-02-16T03:03:22;6.97;75.53
75190;HTU21D;69198;44.694;37.790;2024-02-16T03:04:23;7.00;74.86
75190;HTU21D;69198;44.694;37.790;2024-02-16T03:05:24;6.97;74.89
75190;HTU21D;69198;44.694;37.790;2024-02-16T03:06:25;6.95;74.91
75190;HTU21D;69198;44.694;37.790;2024-02-16T03:07:26;6.95;74.82
75190;HTU21D;69198;44.694;37.790;2024-02-16T03:08:27;6.95;75.08
75190;HTU21D;69198;44.694;37.790;2024-02-16T03:09:28;6.95;75.16
75190;HTU21D;69198;44.694;37.790;2024-02-16T03:10:29;6.96;75.20
75190;HTU21D;69198;44.694;37.790;2024-02-16T03:11:35;6.95;75.00
75190;HTU21D;69198;44.694;37.790;2024-02-16T03:12:36;6.91;75.02
75190;HTU21D;69198;44.694;37.790;2024-02-16T03:13:37;6.94;74.80
75190;HTU21D;69198;44.694;37.790;2024-02-16T03:14:39;6.93;74.83
75190;HTU21D;69198;44.694;37.790;2024-02-16T03:15:40;6.91;74.86
75190;HTU21D;69198;44.694;37.790;2024-02-16T03:16:41;6.94;74.96
75190;HTU21D;69198;44.694;37.790;2024-02-16T03:17:42;6.91;75.05
75190;HTU21D;69198;44.694;37.790;2024-02-16T03:18:43;6.89;74.87
75190;HTU21D;69198;44.694;37.790;2024-02-16T03:19:44;6.84;74.83
75190;HTU21D;69198;44.694;37.790;2024-02-16T03:20:45;6.87;74.63
75190;HTU21D;69198;44.694;37.790;2024-02-16T03:21:49;6.87;74.77
75190;HTU21D;69198;44.694;37.790;2024-02-16T03:22:51;6.87;75.00
75190;HTU21D;69198;44.694;37.790;2024-02-16T03:23:52;6.85;75.22
75190;HTU21D;69198;44.694;37.790;2024-02-16T03:24:52;6.87;75.30
75190;HTU21D;69198;44.694;37.790;2024-02-16T03:25:54;6.86;74.60
75190;HTU21D;69198;44.694;37.790;2024-02-16T03:26:55;6.82;74.54
75190;HTU21D;69198;44.694;37.790;2024-02-16T03:27:56;6.80;74.69
75190;HTU21D;69198;44.694;37.790;2024-02-16T03:28:57;6.83;74.79
75190;HTU21D;69198;44.694;37.790;2024-02-16T03:29:58;6.84;74.74
75190;HTU21D;69198;44.694;37.790;2024-02-16T03:31:00;6.82;74.59
75190;HTU21D;69198;44.694;37.790;2024-02-16T03:32:02;6.81;74.46
75190;HTU21D;69198;44.694;37.790;2024-02-16T03:33:03;6.79;74.36
75190;HTU21D;69198;44.694;37.790;2024-02-16T03:34:04;6.79;74.61
75190;HTU21D;69198;44.694;37.790;2024-02-16T03:35:06;6.72;74.37
75190;HTU21D;69198;44.694;37.790;2024-02-16T03:36:07;6.72;74.42
75190;HTU21D;69198;44.694;37.790;2024-02-16T03:37:08;6.73;74.73
75190;HTU21D;69198;44.694;37.790;2024-02-16T03:38:10;6.72;74.58
75190;HTU21D;69198;44.694;37.790;2024-02-16T03:39:11;6.69;74.48
75190;HTU21D;69198;44.694;37.790;2024-02-16T03:40:12;6.71;74.42
75190;HTU21D;69198;44.694;37.790;2024-02-16T03:41:15;6.69;74.38
75190;HTU21D;69198;44.694;37.790;2024-02-16T03:42:16;6.68;74.47
75190;HTU21D;69198;44.694;37.790;2024-02-16T03:43:21;6.69;74.55
75190;HTU21D;69198;44.694;37.790;2024-02-16T03:44:22;6.67;74.70
75190;HTU21D;69198;44.694;37.790;2024-02-16T03:45:24;6.70;74.88
75190;HTU21D;69198;44.694;37.790;2024-02-16T03:46:25;6.73;74.66
75190;HTU21D;69198;44.694;37.790;2024-02-16T03:47:26;6.74;74.85
75190;HTU21D;69198;44.694;37.790;2024-02-16T03:48:27;6.74;74.83
75190;HTU21D;69198;44.694;37.790;2024-02-16T03:49:28;6.78;74.81
75190;HTU21D;69198;44.694;37.790;2024-02-16T03:50:29;6.81;74.41
75190;HTU21D;69198;44.694;37.790;2024-02-16T03:51:31;6.80;74.07
75190;HTU21D;69198;44.694;37.790;2024-02-16T03:52:32;6.76;74.12
75190;HTU21D;69198;44.694;37.790;2024-02-16T03:53:33;6.75;74.27
75190;HTU21D;69198;44.694;37.790;2024-02-16T03:54:35;6.75;74.10
75190;HTU21D;69198;44.694;37.790;2024-02-16T03:55:36;6.73;73.97
75190;HTU21D;69198;44.694;37.790;2024-02-16T03:56:38;6.68;74.01
75190;HTU21D;69198;44.694;37.790;2024-02-16T03:57:40;6.68;74.13
75190;HTU21D;69198;44.694;37.790;2024-02-16T03:58:41;6.69;74.23
75190;HTU21D;69198;44.694;37.790;2024-02-16T03:59:43;6.69;74.50
75190;HTU21D;69198;44.694;37.790;2024-02-16T04:00:44;6.71;74.57
75190;HTU21D;69198;44.694;37.790;2024-02-16T04:01:45;6.69;74.74
75190;HTU21D;69198;44.694;37.790;2024-02-16T04:02:47;6.66;74.96
75190;HTU21D;69198;44.694;37.790;2024-02-16T04:03:48;6.52;75.44
75190;HTU21D;69198;44.694;37.790;2024-02-16T04:04:49;6.38;76.08
75190;HTU21D;69198;44.694;37.790;2024-02-16T04:05:50;6.22;76.72
75190;HTU21D;69198;44.694;37.790;2024-02-16T04:06:51;6.09;77.38
75190;HTU21D;69198;44.694;37.790;2024-02-16T04:07:52;5.92;78.05
75190;HTU21D;69198;44.694;37.790;2024-02-16T04:08:53;5.81;78.76
75190;HTU21D;69198;44.694;37.790;2024-02-16T04:09:54;5.75;79.42
75190;HTU21D;69198;44.694;37.790;2024-02-16T04:10:55;5.67;79.98
75190;HTU21D;69198;44.694;37.790;2024-02-16T04:11:56;5.61;80.31
75190;HTU21D;69198;44.694;37.790;2024-02-16T04:12:57;5.53;80.51
75190;HTU21D;69198;44.694;37.790;2024-02-16T04:13:58;5.45;80.70
75190;HTU21D;69198;44.694;37.790;2024-02-16T04:14:59;5.45;81.11
75190;HTU21D;69198;44.694;37.790;2024-02-16T04:16:00;5.46;81.64
75190;HTU21D;69198;44.694;37.790;2024-02-16T04:17:01;5.48;81.99
75190;HTU21D;69198;44.694;37.790;2024-02-16T04:18:02;5.40;82.15
75190;HTU21D;69198;44.694;37.790;2024-02-16T04:19:03;5.38;82.46
75190;HTU21D;69198;44.694;37.790;2024-02-16T04:20:05;5.35;82.42
75190;HTU21D;69198;44.694;37.790;2024-02-16T04:21:07;5.34;82.71
75190;HTU21D;69198;44.694;37.790;2024-02-16T04:22:08;5.31;82.64
75190;HTU21D;69198;44.694;37.790;2024-02-16T04:23:09;5.31;82.93
75190;HTU21D;69198;44.694;37.790;2024-02-16T04:24:10;5.32;83.18
75190;HTU21D;69198;44.694;37.790;2024-02-16T04:25:11;5.36;83.30
75190;HTU21D;69198;44.694;37.790;2024-02-16T04:26:12;5.41;83.23
75190;HTU21D;69198;44.694;37.790;2024-02-16T04:27:13;5.43;83.20
75190;HTU21D;69198;44.694;37.790;2024-02-16T04:28:14;5.50;83.14
75190;HTU21D;69198;44.694;37.790;2024-02-16T04:29:15;5.57;82.95
75190;HTU21D;69198;44.694;37.790;2024-02-16T04:30:17;5.66;82.42
75190;HTU21D;69198;44.694;37.790;2024-02-16T04:31:18;5.69;81.88
75190;HTU21D;69198;44.694;37.790;2024-02-16T04:32:19;5.69;81.59
75190;HTU21D;69198;44.694;37.790;2024-02-16T04:33:20;5.74;81.41
75190;HTU21D;69198;44.694;37.790;2024-02-16T04:34:21;5.76;81.34
75190;HTU21D;69198;44.694;37.790;2024-02-16T04:35:22;5.78;81.27
75190;HTU21D;69198;44.694;37.790;2024-02-16T04:36:23;5.80;81.13
75190;HTU21D;69198;44.694;37.790;2024-02-16T04:37:25;5.85;80.94
75190;HTU21D;69198;44.694;37.790;2024-02-16T04:38:26;5.91;80.54
75190;HTU21D;69198;44.694;37.790;2024-02-16T04:39:27;5.90;80.59
75190;HTU21D;69198;44.694;37.790;2024-02-16T04:40:34;5.94;80.61
75190;HTU21D;69198;44.694;37.790;2024-02-16T04:41:37;5.95;80.45
75190;HTU21D;69198;44.694;37.790;2024-02-16T04:42:39;5.97;80.24
75190;HTU21D;69198;44.694;37.790;2024-02-16T04:43:42;5.99;80.23
75190;HTU21D;69198;44.694;37.790;2024-02-16T04:44:44;6.00;80.17
75190;HTU21D;69198;44.694;37.790;2024-02-16T04:45:45;6.01;80.10
75190;HTU21D;69198;44.694;37.790;2024-02-16T04:46:46;6.06;79.90
75190;HTU21D;69198;44.694;37.790;2024-02-16T04:47:47;6.08;79.59
75190;HTU21D;69198;44.694;37.790;2024-02-16T04:48:49;6.10;79.52
75190;HTU21D;69198;44.694;37.790;2024-02-16T04:49:49;6.11;79.28
75190;HTU21D;69198;44.694;37.790;2024-02-16T04:50:51;6.12;79.21
75190;HTU21D;69198;44.694;37.790;2024-02-16T04:51:52;6.13;79.16
75190;HTU21D;69198;44.694;37.790;2024-02-16T04:52:53;6.14;79.24
75190;HTU21D;69198;44.694;37.790;2024-02-16T04:53:54;6.14;79.30
75190;HTU21D;69198;44.694;37.790;2024-02-16T04:54:55;6.17;79.46
75190;HTU21D;69198;44.694;37.790;2024-02-16T04:55:56;6.21;79.56
75190;HTU21D;69198;44.694;37.790;2024-02-16T04:56:57;6.23;79.37
75190;HTU21D;69198;44.694;37.790;2024-02-16T04:57:59;6.26;78.98
75190;HTU21D;69198;44.694;37.790;2024-02-16T04:59:00;6.25;78.99
75190;HTU21D;69198;44.694;37.790;2024-02-16T05:00:02;6.29;79.01
75190;HTU21D;69198;44.694;37.790;2024-02-16T05:01:03;6.31;78.98
75190;HTU21D;69198;44.694;37.790;2024-02-16T05:02:07;6.29;78.97
75190;HTU21D;69198;44.694;37.790;2024-02-16T05:03:08;6.35;78.74
75190;HTU21D;69198;44.694;37.790;2024-02-16T05:04:09;6.33;78.56
75190;HTU21D;69198;44.694;37.790;2024-02-16T05:05:10;6.33;78.47
75190;HTU21D;69198;44.694;37.790;2024-02-16T05:06:11;6.34;78.46
75190;HTU21D;69198;44.694;37.790;2024-02-16T05:07:12;6.35;78.68
75190;HTU21D;69198;44.694;37.790;2024-02-16T05:08:14;6.31;78.75
75190;HTU21D;69198;44.694;37.790;2024-02-16T05:09:15;6.31;78.91
75190;HTU21D;69198;44.694;37.790;2024-02-16T05:10:17;6.28;79.02
75190;HTU21D;69198;44.694;37.790;2024-02-16T05:11:20;6.24;79.23
75190;HTU21D;69198;44.694;37.790;2024-02-16T05:12:22;6.24;79.45
75190;HTU21D;69198;44.694;37.790;2024-02-16T05:13:23;6.24;79.40
75190;HTU21D;69198;44.694;37.790;2024-02-16T05:14:26;6.24;79.33
75190;HTU21D;69198;44.694;37.790;2024-02-16T05:15:28;6.20;79.32
75190;HTU21D;69198;44.694;37.790;2024-02-16T05:16:29;6.20;79.48
75190;HTU21D;69198;44.694;37.790;2024-02-16T05:17:32;6.22;79.41
75190;HTU21D;69198;44.694;37.790;2024-02-16T05:18:33;6.21;79.33
75190;HTU21D;69198;44.694;37.790;2024-02-16T05:19:34;6.20;79.30
75190;HTU21D;69198;44.694;37.790;2024-02-16T05:20:37;6.17;79.41
75190;HTU21D;69198;44.694;37.790;2024-02-16T05:21:38;6.20;79.49
75190;HTU21D;69198;44.694;37.790;2024-02-16T05:22:40;6.20;79.40
75190;HTU21D;69198;44.694;37.790;2024-02-16T05:23:41;6.10;79.43
75190;HTU21D;69198;44.694;37.790;2024-02-16T05:24:42;6.08;79.93
75190;HTU21D;69198;44.694;37.790;2024-02-16T05:25:43;5.97;80.25
75190;HTU21D;69198;44.694;37.790;2024-02-16T05:26:44;5.90;80.51
75190;HTU21D;69198;44.694;37.790;2024-02-16T05:27:46;5.81;80.79
75190;HTU21D;69198;44.694;37.790;2024-02-16T05:28:50;5.77;81.07
75190;HTU21D;69198;44.694;37.790;2024-02-16T05:29:51;5.80;81.27
75190;HTU21D;69198;44.694;37.790;2024-02-16T05:30:53;5.78;81.21
75190;HTU21D;69198;44.694;37.790;2024-02-16T05:31:56;5.79;81.23
75190;HTU21D;69198;44.694;37.790;2024-02-16T05:32:57;5.77;81.00
75190;HTU21D;69198;44.694;37.790;2024-02-16T05:33:59;5.79;80.74
75190;HTU21D;69198;44.694;37.790;2024-02-16T05:35:00;5.77;80.56
75190;HTU21D;69198;44.694;37.790;2024-02-16T05:36:05;5.77;80.65
75190;HTU21D;69198;44.694;37.790;2024-02-16T05:37:07;5.81;80.69
75190;HTU21D;69198;44.694;37.790;2024-02-16T05:38:09;5.83;80.66
75190;HTU21D;69198;44.694;37.790;2024-02-16T05:39:21;5.83;80.59
75190;HTU21D;69198;44.694;37.790;2024-02-16T05:40:27;5.84;80.02
75190;HTU21D;69198;44.694;37.790;2024-02-16T05:41:30;5.86;79.85
75190;HTU21D;69198;44.694;37.790;2024-02-16T05:42:31;5.91;80.22
75190;HTU21D;69198;44.694;37.790;2024-02-16T05:43:32;5.95;80.39
75190;HTU21D;69198;44.694;37.790;2024-02-16T05:44:34;5.98;80.35
75190;HTU21D;69198;44.694;37.790;2024-02-16T05:45:35;6.02;80.12
75190;HTU21D;69198;44.694;37.790;2024-02-16T05:46:36;6.04;79.89
75190;HTU21D;69198;44.694;37.790;2024-02-16T05:47:38;6.06;79.84
75190;HTU21D;69198;44.694;37.790;2024-02-16T05:48:39;6.10;79.67
75190;HTU21D;69198;44.694;37.790;2024-02-16T05:49:41;6.10;79.22
75190;HTU21D;69198;44.694;37.790;2024-02-16T05:50:42;6.09;78.88
75190;HTU21D;69198;44.694;37.790;2024-02-16T05:51:44;6.09;79.14
75190;HTU21D;69198;44.694;37.790;2024-02-16T05:53:05;6.12;79.02
75190;HTU21D;69198;44.694;37.790;2024-02-16T05:54:06;6.08;78.53
75190;HTU21D;69198;44.694;37.790;2024-02-16T05:55:09;6.09;78.97
75190;HTU21D;69198;44.694;37.790;2024-02-16T05:56:10;6.09;79.30
75190;HTU21D;69198;44.694;37.790;2024-02-16T05:57:12;6.11;79.57
75190;HTU21D;69198;44.694;37.790;2024-02-16T05:58:13;6.11;79.19
75190;HTU21D;69198;44.694;37.790;2024-02-16T05:59:14;6.10;79.33
75190;HTU21D;69198;44.694;37.790;2024-02-16T06:00:15;6.12;79.53
75190;HTU21D;69198;44.694;37.790;2024-02-16T06:01:16;6.14;79.82
75190;HTU21D;69198;44.694;37.790;2024-02-16T06:02:17;6.15;79.85
75190;HTU21D;69198;44.694;37.790;2024-02-16T06:03:19;6.14;79.80
75190;HTU21D;69198;44.694;37.790;2024-02-16T06:04:21;6.15;79.98
75190;HTU21D;69198;44.694;37.790;2024-02-16T06:05:22;6.17;79.76
75190;HTU21D;69198;44.694;37.790;2024-02-16T06:06:23;6.21;79.60
75190;HTU21D;69198;44.694;37.790;2024-02-16T06:07:24;6.20;79.23
75190;HTU21D;69198;44.694;37.790;2024-02-16T06:08:25;6.24;79.18
75190;HTU21D;69198;44.694;37.790;2024-02-16T06:09:26;6.29;78.75
75190;HTU21D;69198;44.694;37.790;2024-02-16T06:10:31;6.29;78.55
75190;HTU21D;69198;44.694;37.790;2024-02-16T06:11:32;6.29;78.14
75190;HTU21D;69198;44.694;37.790;2024-02-16T06:12:36;6.28;77.93
75190;HTU21D;69198;44.694;37.790;2024-02-16T06:13:38;6.27;77.81
75190;HTU21D;69198;44.694;37.790;2024-02-16T06:14:39;6.26;77.91
75190;HTU21D;69198;44.694;37.790;2024-02-16T06:15:40;6.25;77.90
75190;HTU21D;69198;44.694;37.790;2024-02-16T06:16:41;6.24;77.91
75190;HTU21D;69198;44.694;37.790;2024-02-16T06:17:43;6.24;78.02
75190;HTU21D;69198;44.694;37.790;2024-02-16T06:18:44;6.24;78.16
75190;HTU21D;69198;44.694;37.790;2024-02-16T06:19:45;6.27;78.06
75190;HTU21D;69198;44.694;37.790;2024-02-16T06:20:46;6.26;78.11
75190;HTU21D;69198;44.694;37.790;2024-02-16T06:21:47;6.31;78.16
75190;HTU21D;69198;44.694;37.790;2024-02-16T06:22:48;6.33;77.89